Řízení letového provozu České republiky  
Aktualizace dat:  19.01.2021 14:04:27 UTC English version
   METEO Zobrazení stránky:  19.01.2021 14:05:54 UTC  
vysvětlivky
METAR EDDB 191350Z 19012KT 7000 -SN BKN005 01/00 Q1005 RESN R25R/691593 NOSIG=
METAR EDDC 191350Z 22009KT 9999 SNRA BKN008 BKN032 02/01 Q1007 R04/CLRD// TEMPO 21015G25KT 4000 SN=
METAR EDDE 191350Z 22021KT 9999 -RA FEW018 BKN030 02/M00 Q1005 R88/290095 TEMPO 22020G30KT=
METAR EDDF 191350Z 20018G28KT 9999 -RA FEW009 OVC019 04/02 Q1011 NOSIG=
METAR EDDM 191350Z 25013KT 9999 FEW030 03/M04 Q1014 NOSIG=
METAR EDDN 191350Z 19010KT 3800 -SN FEW007 BKN021 01/M01 Q1012 R28/290095 TEMPO 2500 BKN008=
METAR EDDP 191350Z 22019KT 9999 -RA BKN012 02/01 Q1005 TEMPO 21020G30KT BKN015=
METAR EDQM 191350Z 22020G31KT 1500 R26/1700N SN OVC010 M01/M02 Q1007=
METAR EPBY 191400Z 17004KT 2700 BR OVC005 01/M00 Q1008 R26/490293=
METAR EPGD 191400Z 17008KT 2000 BR OVC003 M05/M06 Q1007 R11/450195=
METAR EPKK 191400Z 18004KT 9999 FEW023 SCT033 02/M01 Q1013 R25/51//95 =
METAR EPKT 191400Z 21009KT 9000 NSC 01/M01 Q1012 R99/510294=
METAR EPLL 191400Z 19005KT 140V220 5000 BR BKN004 01/00 Q1010 R07/492091=
METAR EPPO 191400Z 17008KT 9999 FEW027 OVC043 02/01 Q1008 R10/29//95 =
METAR EPRZ 191400Z 21012KT 2500 -SN BR FEW003 OVC015 M04/M06 Q1015 R27/49//91=
METAR EPWA 191400Z 13008KT 1400 R11/1900U SN BR BKN008 BKN013 M06/M08 Q1012 R11/49//94 BECMG 3000 -SN BR=
METAR EPWR 191400Z 20009KT 170V230 CAVOK 03/M01 Q1010 R29/2///95=
METAR LHBP 191400Z 19006KT CAVOK 03/M03 Q1019 R88/29//95 NOSIG=
METAR LHSM 191345Z AUTO 18007KT 8000 NCD 05/M01 Q1019 NOSIG=
METAR LKBC 191400Z AUTO 17004KT 140V230 9999 OVC110 03/M05 Q1011=
METAR LKCV 191400Z 17008KT CAVOK 02/M03 Q1011 NOSIG RMK BLU BLU=
METAR LKKB 191400Z 21017KT 9999 -SN BKN038 BKN044 03/M03 Q1010 NOSIG RMK BLU BLU=
METAR LKKU 191400Z 21009KT CAVOK 02/M02 Q1015=
METAR LKKV 191400Z 23006KT 190V270 1300 R29/1600U -SN BR BKN008 BKN013 M01/M01 Q1008 R29/591093 RMK REG QNH 1006=
METAR LKLN 191400Z AUTO 21011KT 9999 -SN SCT020 BKN034 OVC058 01/M01 Q1011=
METAR LKMT 191400Z 20011KT 9999 OVC025 02/M01 Q1013 R04/29//95 NOSIG RMK REG QNH 1006=
METAR LKNA 191400Z 18009KT CAVOK 01/M04 Q1012 NOSIG RMK BLU BLU=
METAR LKPD 191400Z 19008KT CAVOK 02/M02 Q1012 TEMPO 5000 RASN BKN020 RMK BLU BLU TEMPO WHT=
METAR LKPJ 191400Z AUTO 20009KT 180V250 9999 FEW071 BKN100 02/M02 Q1014=
METAR LKPR 191400Z 20010KT 170V230 9999 -SN SCT025 BKN045 01/M03 Q1009 BECMG 3000 SN BKN008 RMK REG QNH 1006=
METAR LKTB 191400Z 20007KT CAVOK 02/M02 Q1014 R27/21//95 NOSIG RMK REG QNH 1006=
METAR LKVO 191400Z 22014KT 8000 -SN BKN032 03/M02 Q1010 R28/9515//=
METAR LOWI 191350Z 28009KT 9999 FEW120 M00/M05 Q1017 R08/19//95 NOSIG=
METAR LOWL 191350Z VRB01KT CAVOK 02/M03 Q1015 R08/19//95 NOSIG=
METAR LOWS 191350Z 16009KT 9999 FEW090 BKN110 03/M05 Q1015 R15/19//95 NOSIG=
METAR LOWW 191350Z 13004KT CAVOK 04/M03 Q1016 R88/19//95 NOSIG=
METAR LZIB 191400Z 19008KT CAVOK 03/M02 Q1017 R13/1///95 NOSIG=
METAR LZKZ 191400Z 22004KT 190V250 3200 BR OVC005 M05/M07 Q1019 TEMPO 2500 BR=
METAR LZMC 191400Z 19004KT CAVOK 04/M03 Q1016=
METAR LZPP 191400Z VRB01KT 6000 NSC M00/M03 Q1016=
METAR LZSL NIL
METAR LZTT 191400Z 16003KT 9999 SCT025 M06/M09 Q1013 NOSIG=
METAR LZZI 191400Z 08002KT 6000 OVC017 M03/M05 Q1016=